createdAt,value
2023-01-06T00:01:03.460Z,10.49
2023-01-06T00:04:05.234Z,10.50
2023-01-06T00:07:07.033Z,10.50
2023-01-06T00:10:09.217Z,10.46
2023-01-06T00:13:11.110Z,10.45
2023-01-06T00:16:16.122Z,10.46
2023-01-06T00:19:17.873Z,10.46
2023-01-06T00:22:19.539Z,10.48
2023-01-06T00:25:21.295Z,10.44
2023-01-06T00:28:23.040Z,10.45
2023-01-06T00:31:26.054Z,10.41
2023-01-06T00:34:27.943Z,10.40
2023-01-06T00:37:29.678Z,10.37
2023-01-06T00:40:31.347Z,10.35
2023-01-06T00:43:34.178Z,10.29
2023-01-06T00:46:37.269Z,10.25
2023-01-06T00:49:38.992Z,10.23
2023-01-06T00:52:40.687Z,10.24
2023-01-06T00:55:42.266Z,10.23
2023-01-06T00:58:43.971Z,10.22
2023-01-06T01:01:49.611Z,10.22
2023-01-06T01:04:51.361Z,10.21
2023-01-06T01:07:52.987Z,10.23
2023-01-06T01:10:55.716Z,10.21
2023-01-06T01:13:57.394Z,10.24
2023-01-06T01:17:01.355Z,10.24
2023-01-06T01:20:04.518Z,10.24
2023-01-06T01:23:06.193Z,10.28
2023-01-06T01:26:07.855Z,10.29
2023-01-06T01:29:11.808Z,10.30
2023-01-06T01:32:14.781Z,10.31
2023-01-06T01:35:16.427Z,10.34
2023-01-06T01:38:18.084Z,10.37
2023-01-06T01:41:22.399Z,10.38
2023-01-06T01:44:59.519Z,10.44
2023-01-06T01:48:07.059Z,10.43
2023-01-06T01:51:17.316Z,10.47
2023-01-06T01:54:23.486Z,10.45
2023-01-06T01:57:30.883Z,10.47
2023-01-06T02:00:33.830Z,10.46
2023-01-06T02:03:37.639Z,10.44
2023-01-06T02:06:41.506Z,10.44
2023-01-06T02:09:50.770Z,10.42
2023-01-06T02:12:57.043Z,10.42
2023-01-06T02:21:41.694Z,10.39
2023-01-06T02:25:40.470Z,10.36
2023-01-06T02:29:00.842Z,10.33
2023-01-06T02:32:14.817Z,10.36
2023-01-06T02:35:34.728Z,10.37
2023-01-06T02:38:49.122Z,10.34
2023-01-06T02:42:02.602Z,10.36
2023-01-06T02:45:14.398Z,10.33
2023-01-06T02:48:23.954Z,10.31
2023-01-06T02:51:36.091Z,10.30
2023-01-06T02:54:43.461Z,10.27
2023-01-06T02:57:50.877Z,10.26
2023-01-06T03:00:59.181Z,10.24
2023-01-06T03:04:10.042Z,10.21
2023-01-06T03:07:16.682Z,10.19
2023-01-06T03:10:22.127Z,10.18
2023-01-06T03:13:30.127Z,10.20
2023-01-06T03:16:33.572Z,10.18
2023-01-06T03:19:37.670Z,10.17
2023-01-06T03:22:40.942Z,10.17
2023-01-06T03:25:43.270Z,10.16
2023-01-06T03:28:46.877Z,10.20
2023-01-06T03:32:00.818Z,10.17
2023-01-06T03:35:25.407Z,10.20
2023-01-06T03:38:39.118Z,10.24
2023-01-06T03:42:03.759Z,10.25
2023-01-06T03:45:17.958Z,10.25
2023-01-06T03:48:39.326Z,10.25
2023-01-06T03:51:48.453Z,10.20
2023-01-06T03:54:57.574Z,10.25
2023-01-06T03:58:02.022Z,10.30
2023-01-06T04:01:05.782Z,10.32
2023-01-06T04:04:07.694Z,10.37
2023-01-06T04:07:10.773Z,10.39
2023-01-06T04:10:17.349Z,10.36
2023-01-06T04:13:21.446Z,10.36
2023-01-06T04:16:23.232Z,10.35
2023-01-06T04:19:24.933Z,10.32
2023-01-06T04:22:28.836Z,10.28
2023-01-06T04:25:30.925Z,10.24
2023-01-06T04:28:32.620Z,10.21
2023-01-06T04:31:35.788Z,10.18
2023-01-06T04:34:37.879Z,10.17
2023-01-06T04:37:41.084Z,10.14
2023-01-06T04:40:43.150Z,10.13
2023-01-06T04:43:44.758Z,10.12
2023-01-06T04:46:49.253Z,10.12
2023-01-06T04:49:50.894Z,10.09
2023-01-06T04:52:53.879Z,10.11
2023-01-06T04:55:55.483Z,10.11
2023-01-06T04:58:58.012Z,10.02
2023-01-06T05:01:59.690Z,10.03
2023-01-06T05:05:01.340Z,10.02
2023-01-06T05:08:04.343Z,10.01
2023-01-06T05:11:08.698Z,10.01
2023-01-06T05:14:10.332Z,9.97
2023-01-06T05:17:11.961Z,10.03
2023-01-06T05:20:13.709Z,10.03
2023-01-06T05:23:16.749Z,10.02
2023-01-06T05:26:20.413Z,10.02
2023-01-06T05:29:22.131Z,10.02
2023-01-06T05:32:23.786Z,10.00
2023-01-06T05:35:25.777Z,10.02
2023-01-06T05:38:28.752Z,9.97
2023-01-06T05:41:30.345Z,9.99
2023-01-06T05:44:32.094Z,9.96
2023-01-06T05:47:33.739Z,9.97
2023-01-06T05:50:35.550Z,9.99
2023-01-06T05:53:40.398Z,9.97
2023-01-06T05:56:42.237Z,9.94
2023-01-06T05:59:46.302Z,9.99
2023-01-06T06:02:48.042Z,9.99
2023-01-06T06:05:49.707Z,9.95
2023-01-06T06:08:52.828Z,9.93
2023-01-06T06:11:54.780Z,9.93
2023-01-06T06:14:56.454Z,9.89
2023-01-06T06:17:58.338Z,9.93
2023-01-06T06:21:01.528Z,9.89
2023-01-06T06:24:05.262Z,9.89
2023-01-06T06:27:06.912Z,9.84
2023-01-06T06:30:09.296Z,9.87
2023-01-06T06:33:10.946Z,9.89
2023-01-06T06:36:15.703Z,9.89
2023-01-06T06:39:18.802Z,9.86
2023-01-06T06:42:20.372Z,9.82
2023-01-06T06:45:22.061Z,9.81
2023-01-06T06:48:23.769Z,9.78
2023-01-06T06:51:25.488Z,9.81
2023-01-06T06:54:28.593Z,9.79
2023-01-06T06:57:30.286Z,9.77
2023-01-06T07:00:31.937Z,9.75
2023-01-06T07:03:33.650Z,9.76
2023-01-06T07:06:35.413Z,9.75
2023-01-06T07:09:38.583Z,9.46
2023-01-06T07:12:40.406Z,9.32
2023-01-06T07:15:42.408Z,9.20
2023-01-06T07:18:44.157Z,9.24
2023-01-06T07:21:46.064Z,9.25
2023-01-06T07:24:51.232Z,9.17
2023-01-06T07:27:57.441Z,9.19
2023-01-06T07:30:59.773Z,9.18
2023-01-06T07:34:01.539Z,9.15
2023-01-06T07:37:03.259Z,9.18
2023-01-06T07:40:07.453Z,9.18
2023-01-06T07:43:10.680Z,9.21
2023-01-06T07:46:12.338Z,9.05
2023-01-06T07:49:14.297Z,9.16
2023-01-06T07:52:15.990Z,9.16
2023-01-06T07:55:19.130Z,9.17
2023-01-06T07:58:23.882Z,9.22
2023-01-06T08:01:25.709Z,9.24
2023-01-06T08:04:27.803Z,9.33
2023-01-06T08:07:31.654Z,9.26
2023-01-06T08:10:34.889Z,9.30
2023-01-06T08:13:37.279Z,9.36
2023-01-06T08:16:39.380Z,9.34
2023-01-06T08:19:40.971Z,9.39
2023-01-06T08:22:42.573Z,9.39
2023-01-06T08:25:45.648Z,9.41
2023-01-06T08:28:47.661Z,9.37
2023-01-06T08:31:49.522Z,9.27
2023-01-06T08:34:51.138Z,9.22
2023-01-06T08:37:52.853Z,9.18
2023-01-06T08:40:56.997Z,9.20
2023-01-06T08:43:58.709Z,9.08
2023-01-06T08:47:00.846Z,8.99
2023-01-06T08:50:02.655Z,8.98
2023-01-06T08:53:04.532Z,8.98
2023-01-06T08:56:13.810Z,8.94
2023-01-06T08:59:17.342Z,8.96
2023-01-06T09:02:19.163Z,9.13
2023-01-06T09:05:21.139Z,9.13
2023-01-06T09:08:23.559Z,9.17
2023-01-06T09:11:27.341Z,9.23
2023-01-06T09:14:29.701Z,9.30
2023-01-06T09:17:34.177Z,9.39
2023-01-06T09:20:36.668Z,9.51
2023-01-06T09:23:38.323Z,9.68
2023-01-06T09:26:41.638Z,9.73
2023-01-06T09:29:43.302Z,9.73
2023-01-06T09:32:44.980Z,9.66
2023-01-06T09:35:47.086Z,9.73
2023-01-06T09:38:48.823Z,9.80
2023-01-06T09:42:14.447Z,9.89
2023-01-06T09:45:19.355Z,9.89
2023-01-06T09:48:25.985Z,9.94
2023-01-06T09:51:29.919Z,9.93
2023-01-06T09:54:35.041Z,9.93
2023-01-06T09:57:41.016Z,9.97
2023-01-06T10:00:44.055Z,9.98
2023-01-06T10:03:47.631Z,10.02
2023-01-06T10:06:58.991Z,10.09
2023-01-06T10:10:14.055Z,10.10
2023-01-06T10:13:32.794Z,9.99
2023-01-06T10:16:48.107Z,10.06
2023-01-06T10:20:02.831Z,10.20
2023-01-06T10:23:14.081Z,10.16
2023-01-06T10:26:25.884Z,10.20
2023-01-06T10:29:33.801Z,10.19
2023-01-06T10:32:37.696Z,10.20
2023-01-06T10:35:39.409Z,10.14
2023-01-06T10:38:43.897Z,10.16
2023-01-06T10:42:15.634Z,10.20
2023-01-06T10:45:18.932Z,10.20
2023-01-06T10:48:26.244Z,10.19
2023-01-06T10:51:38.831Z,10.18
2023-01-06T10:54:42.233Z,10.14
2023-01-06T10:57:44.010Z,10.21
2023-01-06T11:00:59.134Z,10.18
2023-01-06T11:04:07.706Z,10.17
2023-01-06T11:07:14.681Z,10.21
2023-01-06T11:10:26.403Z,10.17
2023-01-06T11:13:33.511Z,10.24
2023-01-06T11:16:37.407Z,10.31
2023-01-06T11:19:40.812Z,10.39
2023-01-06T11:22:43.640Z,10.39
2023-01-06T11:26:01.037Z,10.36
2023-01-06T11:29:18.681Z,10.35
2023-01-06T11:32:24.753Z,10.38
2023-01-06T11:35:30.693Z,10.42
2023-01-06T11:38:39.982Z,10.38
2023-01-06T11:41:47.175Z,10.42
2023-01-06T11:44:48.797Z,10.46
2023-01-06T11:47:51.804Z,10.60
2023-01-06T11:50:55.643Z,10.61
2023-01-06T11:53:57.489Z,10.64
2023-01-06T11:57:01.163Z,10.67
2023-01-06T12:00:15.329Z,10.72
2023-01-06T12:03:26.359Z,10.57
2023-01-06T12:06:33.706Z,10.68
2023-01-06T12:09:40.863Z,10.71
2023-01-06T12:12:42.750Z,10.79
2023-01-06T12:15:49.164Z,10.73
2023-01-06T12:18:52.793Z,10.68
2023-01-06T12:21:55.464Z,10.73
2023-01-06T12:24:59.742Z,10.76
2023-01-06T12:28:04.485Z,10.70
2023-01-06T12:31:10.448Z,10.68
2023-01-06T12:34:19.793Z,10.61
2023-01-06T12:37:27.936Z,10.61
2023-01-06T12:40:33.394Z,10.58
2023-01-06T12:43:41.080Z,10.66
2023-01-06T12:46:50.415Z,10.73
2023-01-06T12:49:57.197Z,10.61
2023-01-06T12:53:09.995Z,10.67
2023-01-06T12:56:40.551Z,10.63
2023-01-06T12:59:52.414Z,10.47
2023-01-06T13:03:05.763Z,10.59
2023-01-06T13:06:25.914Z,10.69
2023-01-06T13:09:40.066Z,10.63
2023-01-06T13:12:52.123Z,10.63
2023-01-06T13:15:57.086Z,10.67
2023-01-06T13:19:09.137Z,10.62
2023-01-06T13:22:17.835Z,10.58
2023-01-06T13:25:33.287Z,10.68
2023-01-06T13:28:49.271Z,10.61
2023-01-06T13:32:10.614Z,10.61
2023-01-06T13:35:38.076Z,10.68
2023-01-06T13:38:59.963Z,10.58
2023-01-06T13:42:06.077Z,10.54
2023-01-06T13:45:15.346Z,10.67
2023-01-06T13:48:20.925Z,10.68
2023-01-06T13:51:27.120Z,10.71
2023-01-06T13:55:08.486Z,10.68
2023-01-06T13:58:40.485Z,10.72
2023-01-06T14:01:42.266Z,10.81
2023-01-06T14:04:48.915Z,10.80
2023-01-06T14:07:55.237Z,10.82
2023-01-06T14:11:02.190Z,10.71
2023-01-06T14:14:07.404Z,10.85
2023-01-06T14:17:28.664Z,10.90
2023-01-06T14:20:33.401Z,10.85
2023-01-06T14:23:35.959Z,10.93
2023-01-06T14:26:46.377Z,10.87
2023-01-06T14:30:05.129Z,10.76
2023-01-06T14:33:35.131Z,10.76
2023-01-06T14:36:37.390Z,10.73
2023-01-06T14:39:41.688Z,10.64
2023-01-06T14:42:45.513Z,10.59
2023-01-06T14:45:49.700Z,10.73
2023-01-06T14:48:59.857Z,10.70
2023-01-06T14:52:12.405Z,10.66
2023-01-06T14:55:18.223Z,10.58
2023-01-06T14:58:30.554Z,10.55
2023-01-06T15:01:37.161Z,10.52
2023-01-06T15:04:39.640Z,10.53
2023-01-06T15:07:55.900Z,10.50
2023-01-06T15:11:12.657Z,10.44
2023-01-06T15:14:31.174Z,10.37
2023-01-06T15:17:34.490Z,10.38
2023-01-06T15:20:41.857Z,10.39
2023-01-06T15:23:47.537Z,10.31
2023-01-06T15:26:51.070Z,10.32
2023-01-06T15:29:55.044Z,10.21
2023-01-06T15:32:59.005Z,10.28
2023-01-06T15:36:01.526Z,10.29
2023-01-06T15:39:05.947Z,10.26
2023-01-06T15:42:10.539Z,10.27
2023-01-06T15:45:23.712Z,10.30
2023-01-06T15:48:29.770Z,10.28
2023-01-06T15:51:31.605Z,10.33
2023-01-06T15:54:37.289Z,10.31
2023-01-06T15:57:39.961Z,10.28
2023-01-06T16:00:48.004Z,10.34
2023-01-06T16:03:53.005Z,10.29
2023-01-06T16:06:55.106Z,10.31
2023-01-06T16:09:56.871Z,10.27
2023-01-06T16:13:15.324Z,10.29
2023-01-06T16:16:29.430Z,10.24
2023-01-06T16:19:33.277Z,10.20
2023-01-06T16:22:37.745Z,10.20
2023-01-06T16:25:39.588Z,10.21
2023-01-06T16:28:45.686Z,10.20
2023-01-06T16:31:47.393Z,10.18
2023-01-06T16:34:52.367Z,10.17
2023-01-06T16:37:57.291Z,10.19
2023-01-06T16:40:59.042Z,10.18
2023-01-06T16:44:00.753Z,10.14
2023-01-06T16:47:02.459Z,10.10
2023-01-06T16:50:15.043Z,10.07
2023-01-06T16:53:19.773Z,10.01
2023-01-06T16:56:23.147Z,9.99
2023-01-06T16:59:26.848Z,9.98
2023-01-06T17:02:28.781Z,9.93
2023-01-06T17:05:31.902Z,9.97
2023-01-06T17:08:37.382Z,9.96
2023-01-06T17:11:39.269Z,9.94
2023-01-06T17:14:41.079Z,9.94
2023-01-06T17:17:43.004Z,10.00
2023-01-06T17:20:46.168Z,10.00
2023-01-06T17:23:50.930Z,9.98
2023-01-06T17:26:56.984Z,9.99
2023-01-06T17:30:01.765Z,9.97
2023-01-06T17:33:05.209Z,9.99
2023-01-06T17:36:14.933Z,9.97
2023-01-06T17:39:20.080Z,10.00
2023-01-06T17:42:27.432Z,9.98
2023-01-06T17:45:30.005Z,10.02
2023-01-06T17:48:32.258Z,10.00
2023-01-06T17:51:36.159Z,9.99
2023-01-06T17:54:56.373Z,10.02
2023-01-06T17:57:59.168Z,9.96
2023-01-06T18:01:01.780Z,9.92
2023-01-06T18:04:09.254Z,9.83
2023-01-06T18:07:13.758Z,9.83
2023-01-06T18:10:17.399Z,9.84
2023-01-06T18:13:21.732Z,9.84
2023-01-06T18:16:28.504Z,9.85
2023-01-06T18:19:34.343Z,9.92
2023-01-06T18:22:40.576Z,9.93
2023-01-06T18:25:42.259Z,9.96
2023-01-06T18:28:43.950Z,9.96
2023-01-06T18:31:47.444Z,9.97
2023-01-06T18:34:50.941Z,9.97
2023-01-06T18:37:59.154Z,10.01
2023-01-06T18:41:02.228Z,9.99
2023-01-06T18:44:05.460Z,10.01
2023-01-06T18:47:13.753Z,9.99
2023-01-06T18:50:32.108Z,10.06
2023-01-06T18:53:40.074Z,10.10
2023-01-06T18:56:41.851Z,10.04
2023-01-06T18:59:43.619Z,10.02
2023-01-06T19:02:45.828Z,10.06
2023-01-06T19:05:47.668Z,10.12
2023-01-06T19:08:51.581Z,10.12
2023-01-06T19:12:00.976Z,10.11
2023-01-06T19:15:15.458Z,10.12
2023-01-06T19:18:19.661Z,10.06
2023-01-06T19:21:23.816Z,10.07
2023-01-06T19:24:43.218Z,10.01
2023-01-06T19:27:48.144Z,10.08
2023-01-06T19:30:51.018Z,10.04
2023-01-06T19:33:57.445Z,10.06
2023-01-06T19:36:59.669Z,10.03
2023-01-06T19:40:04.232Z,10.03
2023-01-06T19:43:13.521Z,10.02
2023-01-06T19:46:21.478Z,10.01
2023-01-06T19:49:25.530Z,10.00
2023-01-06T19:52:31.453Z,10.00
2023-01-06T19:55:34.549Z,10.01
2023-01-06T19:58:36.268Z,10.00
2023-01-06T20:01:38.628Z,9.97
2023-01-06T20:04:41.075Z,9.93
2023-01-06T20:07:42.709Z,9.94
2023-01-06T20:10:48.605Z,9.92
2023-01-06T20:13:50.419Z,9.92
2023-01-06T20:16:52.523Z,9.92
2023-01-06T20:19:54.374Z,9.92
2023-01-06T20:22:56.300Z,9.94
2023-01-06T20:26:01.609Z,9.91
2023-01-06T20:29:04.406Z,9.87
2023-01-06T20:32:06.294Z,9.84
2023-01-06T20:35:09.429Z,9.86
2023-01-06T20:38:11.353Z,9.89
2023-01-06T20:41:14.389Z,9.91
2023-01-06T20:44:16.110Z,9.91
2023-01-06T20:47:17.837Z,9.91
2023-01-06T20:50:20.809Z,9.93
2023-01-06T20:53:22.581Z,9.91
2023-01-06T20:56:25.650Z,9.89
2023-01-06T20:59:27.637Z,9.88
2023-01-06T21:02:29.501Z,9.85
2023-01-06T21:05:31.730Z,9.88
2023-01-06T21:08:33.435Z,9.95
2023-01-06T21:11:36.535Z,9.93
2023-01-06T21:14:38.373Z,9.95
2023-01-06T21:17:40.296Z,9.93
2023-01-06T21:20:41.961Z,9.92
2023-01-06T21:23:43.607Z,9.91
2023-01-06T21:26:46.755Z,9.92
2023-01-06T21:29:48.515Z,9.90
2023-01-06T21:32:50.222Z,9.90
2023-01-06T21:35:51.966Z,9.94
2023-01-06T21:38:53.596Z,9.93
2023-01-06T21:42:15.096Z,9.90
2023-01-06T21:45:16.847Z,9.89
2023-01-06T21:48:20.172Z,9.90
2023-01-06T21:51:22.086Z,9.92
2023-01-06T21:54:24.236Z,9.92
2023-01-06T21:57:28.239Z,9.93
2023-01-06T22:00:30.037Z,9.94
2023-01-06T22:03:31.865Z,9.89
2023-01-06T22:06:34.931Z,9.88
2023-01-06T22:09:38.999Z,9.87
2023-01-06T22:12:43.997Z,9.90
2023-01-06T22:15:46.213Z,9.90
2023-01-06T22:18:47.865Z,9.87
2023-01-06T22:21:49.693Z,9.89
2023-01-06T22:24:53.261Z,9.90
2023-01-06T22:27:58.605Z,9.90
2023-01-06T22:31:00.270Z,9.90
2023-01-06T22:34:02.410Z,9.87
2023-01-06T22:37:04.173Z,9.85
2023-01-06T22:40:07.025Z,9.85
2023-01-06T22:43:10.101Z,9.82
2023-01-06T22:46:11.930Z,9.82
2023-01-06T22:49:14.616Z,9.79
2023-01-06T22:52:16.587Z,9.79
2023-01-06T22:55:18.321Z,9.75
2023-01-06T22:58:21.368Z,9.73
2023-01-06T23:01:23.509Z,9.77
2023-01-06T23:04:25.240Z,9.78
2023-01-06T23:07:26.907Z,9.80
2023-01-06T23:10:28.552Z,9.72
2023-01-06T23:13:32.177Z,9.76
2023-01-06T23:16:36.592Z,9.77
2023-01-06T23:19:38.385Z,9.75
2023-01-06T23:22:40.142Z,9.80
2023-01-06T23:25:41.781Z,9.77
2023-01-06T23:28:45.737Z,9.74
2023-01-06T23:31:47.449Z,9.72
2023-01-06T23:34:49.089Z,9.72
2023-01-06T23:37:50.822Z,9.69
2023-01-06T23:40:52.604Z,9.70
2023-01-06T23:43:56.413Z,9.68
2023-01-06T23:46:58.125Z,9.68
2023-01-06T23:49:59.860Z,9.66
2023-01-06T23:53:01.549Z,9.70
2023-01-06T23:56:05.606Z,9.72
2023-01-06T23:59:11.352Z,9.72
